createdAt,value
2019-03-10T00:01:13.877Z,55.50
2019-03-10T00:03:43.378Z,55.30
2019-03-10T00:06:12.710Z,55.30
2019-03-10T00:08:42.400Z,55.30
2019-03-10T00:11:11.728Z,55.20
2019-03-10T00:13:41.482Z,55.20
2019-03-10T00:16:10.952Z,55.20
2019-03-10T00:18:40.303Z,55.20
2019-03-10T00:21:26.224Z,55.20
2019-03-10T00:23:55.601Z,55.10
2019-03-10T00:26:24.963Z,55.20
2019-03-10T00:28:54.236Z,55.10
2019-03-10T00:31:23.604Z,55.10
2019-03-10T00:33:52.926Z,55.10
2019-03-10T00:36:22.181Z,55.10
2019-03-10T00:39:47.143Z,55.10
2019-03-10T00:43:05.736Z,55.10
2019-03-10T00:46:15.313Z,54.90
2019-03-10T00:49:34.805Z,54.90
2019-03-10T00:52:16.529Z,55.00
2019-03-10T00:54:46.052Z,55.20
2019-03-10T00:57:15.265Z,55.20
2019-03-10T00:59:44.658Z,55.10
2019-03-10T01:02:13.997Z,55.20
2019-03-10T01:04:43.231Z,55.30
2019-03-10T01:07:12.598Z,55.30
2019-03-10T01:09:41.882Z,55.30
2019-03-10T01:12:23.182Z,55.40
2019-03-10T01:14:52.526Z,55.40
2019-03-10T01:17:22.427Z,55.50
2019-03-10T01:19:52.267Z,55.60
2019-03-10T01:22:22.471Z,55.80
2019-03-10T01:24:51.816Z,55.80
2019-03-10T01:27:21.193Z,55.90
2019-03-10T01:29:50.631Z,56.00
2019-03-10T01:32:58.863Z,56.00
2019-03-10T01:35:34.535Z,56.00
2019-03-10T01:38:03.766Z,55.90
2019-03-10T01:40:33.175Z,56.10
2019-03-10T01:43:03.619Z,56.20
2019-03-10T01:45:32.874Z,56.20
2019-03-10T01:48:02.164Z,56.20
2019-03-10T01:50:31.483Z,56.30
2019-03-10T01:53:00.863Z,56.20
2019-03-10T01:55:30.184Z,56.40
2019-03-10T01:57:59.566Z,56.40
2019-03-10T02:00:28.944Z,56.40
2019-03-10T02:02:58.214Z,56.40
2019-03-10T02:05:27.546Z,56.50
2019-03-10T02:07:56.778Z,56.60
2019-03-10T02:10:26.053Z,56.70
2019-03-10T02:12:56.358Z,56.60
2019-03-10T02:15:25.647Z,56.60
2019-03-10T02:17:54.948Z,56.70
2019-03-10T02:20:24.172Z,56.70
2019-03-10T02:22:53.508Z,56.60
2019-03-10T02:25:22.880Z,56.50
2019-03-10T02:27:52.158Z,56.50
2019-03-10T02:30:21.450Z,56.50
2019-03-10T02:32:50.755Z,56.50
2019-03-10T02:35:20.127Z,56.50
2019-03-10T02:37:49.499Z,56.60
2019-03-10T02:40:18.908Z,56.60
2019-03-10T02:42:55.359Z,56.60
2019-03-10T02:45:24.558Z,56.70
2019-03-10T02:47:53.894Z,56.70
2019-03-10T02:50:23.199Z,56.70
2019-03-10T02:52:52.558Z,56.70
2019-03-10T02:55:21.839Z,56.60
2019-03-10T02:57:51.200Z,56.50
2019-03-10T03:00:20.550Z,56.50
2019-03-10T03:02:49.906Z,56.70
2019-03-10T03:05:19.190Z,56.60
2019-03-10T03:07:48.440Z,56.60
2019-03-10T03:10:17.767Z,56.60
2019-03-10T03:12:47.126Z,56.60
2019-03-10T03:15:16.496Z,56.60
2019-03-10T03:17:45.707Z,56.50
2019-03-10T03:20:14.938Z,56.70
2019-03-10T03:22:44.326Z,56.70
2019-03-10T03:25:13.609Z,56.80
2019-03-10T03:27:43.024Z,56.70
2019-03-10T03:30:13.902Z,56.70
2019-03-10T03:32:43.219Z,56.80
2019-03-10T03:35:47.776Z,56.80
2019-03-10T03:38:18.848Z,56.80
2019-03-10T03:40:51.748Z,56.80
2019-03-10T03:43:21.049Z,56.90
2019-03-10T03:45:50.452Z,57.40
2019-03-10T03:48:37.166Z,57.00
2019-03-10T03:51:06.533Z,57.00
2019-03-10T03:53:35.912Z,57.00
2019-03-10T03:56:05.817Z,57.00
2019-03-10T03:58:35.089Z,57.10
2019-03-10T04:01:11.454Z,57.10
2019-03-10T04:03:40.835Z,57.10
2019-03-10T04:06:10.196Z,57.00
2019-03-10T04:08:39.563Z,57.10
2019-03-10T04:11:08.904Z,57.10
2019-03-10T04:13:38.161Z,57.10
2019-03-10T04:16:07.504Z,57.00
2019-03-10T04:18:36.862Z,57.10
2019-03-10T04:21:06.155Z,57.10
2019-03-10T04:23:35.560Z,57.10
2019-03-10T04:26:04.933Z,57.10
2019-03-10T04:28:34.159Z,57.00
2019-03-10T04:31:03.531Z,57.00
2019-03-10T04:33:32.818Z,57.10
2019-03-10T04:36:02.218Z,57.00
2019-03-10T04:38:31.609Z,57.10
2019-03-10T04:41:02.867Z,57.10
2019-03-10T04:43:31.957Z,57.10
2019-03-10T04:46:01.185Z,57.10
2019-03-10T04:48:30.499Z,57.10
2019-03-10T04:50:59.939Z,57.10
2019-03-10T04:53:29.309Z,57.10
2019-03-10T04:56:23.371Z,57.10
2019-03-10T04:58:53.233Z,57.10
2019-03-10T05:01:23.125Z,57.10
2019-03-10T05:03:52.425Z,57.10
2019-03-10T05:06:21.705Z,57.10
2019-03-10T05:08:51.079Z,57.00
2019-03-10T05:11:20.462Z,57.10
2019-03-10T05:13:49.830Z,57.00
2019-03-10T05:16:19.149Z,56.90
2019-03-10T05:18:48.478Z,56.80
2019-03-10T05:21:17.844Z,56.80
2019-03-10T05:23:47.247Z,56.70
2019-03-10T05:26:17.123Z,56.70
2019-03-10T05:28:47.481Z,56.70
2019-03-10T05:31:20.672Z,56.70
2019-03-10T05:33:50.013Z,56.60
2019-03-10T05:36:19.291Z,56.60
2019-03-10T05:38:48.608Z,56.50
2019-03-10T05:41:17.958Z,56.50
2019-03-10T05:43:47.341Z,56.60
2019-03-10T05:46:16.696Z,56.60
2019-03-10T05:48:45.998Z,56.60
2019-03-10T05:51:15.336Z,56.50
2019-03-10T05:53:45.113Z,56.50
2019-03-10T05:56:14.384Z,56.50
2019-03-10T05:58:43.710Z,56.50
2019-03-10T06:01:13.081Z,56.40
2019-03-10T06:03:42.428Z,56.40
2019-03-10T06:06:11.768Z,56.40
2019-03-10T06:08:41.050Z,56.40
2019-03-10T06:11:10.402Z,56.40
2019-03-10T06:13:39.734Z,56.40
2019-03-10T06:16:09.114Z,56.50
2019-03-10T06:18:38.392Z,56.40
2019-03-10T06:21:07.704Z,56.40
2019-03-10T06:23:37.577Z,56.30
2019-03-10T06:26:06.956Z,56.30
2019-03-10T06:28:36.214Z,56.20
2019-03-10T06:31:05.437Z,56.10
2019-03-10T06:33:34.718Z,55.30
2019-03-10T06:36:04.104Z,55.30
2019-03-10T06:38:33.487Z,55.30
2019-03-10T06:41:02.781Z,55.40
2019-03-10T06:43:32.079Z,55.30
2019-03-10T06:46:01.345Z,55.20
2019-03-10T06:48:30.694Z,55.20
2019-03-10T06:51:00.063Z,55.30
2019-03-10T06:53:29.361Z,55.30
2019-03-10T06:55:58.843Z,55.20
2019-03-10T06:58:28.150Z,55.20
2019-03-10T07:01:54.027Z,55.20
2019-03-10T07:04:23.299Z,55.00
2019-03-10T07:06:52.600Z,55.10
2019-03-10T07:09:21.895Z,55.10
2019-03-10T07:11:51.201Z,55.20
2019-03-10T07:14:20.539Z,55.90
2019-03-10T07:16:49.920Z,55.30
2019-03-10T07:19:19.321Z,55.30
2019-03-10T07:21:48.682Z,55.30
2019-03-10T07:24:18.084Z,55.30
2019-03-10T07:26:47.385Z,55.50
2019-03-10T07:29:28.698Z,55.60
2019-03-10T07:32:04.117Z,55.50
2019-03-10T07:34:55.141Z,55.50
2019-03-10T07:37:45.828Z,56.10
2019-03-10T07:40:32.936Z,55.40
2019-03-10T07:43:15.085Z,55.40
2019-03-10T07:46:12.431Z,55.50
2019-03-10T07:49:07.369Z,55.50
2019-03-10T07:51:54.496Z,55.50
2019-03-10T07:54:32.762Z,55.60
2019-03-10T07:57:39.345Z,55.40
2019-03-10T08:00:28.092Z,55.50
2019-03-10T08:03:28.474Z,55.50
2019-03-10T08:06:25.530Z,55.40
2019-03-10T08:09:26.179Z,55.50
2019-03-10T08:12:11.798Z,55.60
2019-03-10T08:14:50.602Z,55.70
2019-03-10T08:17:28.315Z,55.70
2019-03-10T08:20:03.026Z,55.80
2019-03-10T08:22:45.468Z,55.90
2019-03-10T08:25:33.875Z,56.00
2019-03-10T08:28:16.203Z,56.20
2019-03-10T08:31:22.685Z,56.40
2019-03-10T08:34:13.728Z,56.60
2019-03-10T08:37:13.942Z,56.70
2019-03-10T08:40:02.311Z,56.80
2019-03-10T08:42:46.801Z,57.20
2019-03-10T08:45:44.147Z,57.40
2019-03-10T08:48:30.389Z,57.70
2019-03-10T08:51:36.822Z,58.00
2019-03-10T08:54:17.212Z,58.20
2019-03-10T08:57:28.715Z,58.60
2019-03-10T09:00:07.667Z,58.80
2019-03-10T09:02:49.875Z,60.30
2019-03-10T09:05:38.194Z,60.80
2019-03-10T09:08:29.299Z,61.30
2019-03-10T09:11:05.669Z,61.80
2019-03-10T09:13:58.915Z,62.00
2019-03-10T09:16:47.206Z,62.00
2019-03-10T09:19:28.869Z,62.20
2019-03-10T09:22:28.472Z,62.50
2019-03-10T09:25:19.749Z,62.80
2019-03-10T09:27:58.551Z,63.00
2019-03-10T09:31:08.236Z,63.10
2019-03-10T09:33:52.754Z,63.10
2019-03-10T09:36:36.000Z,63.30
2019-03-10T09:39:28.920Z,63.40
2019-03-10T09:42:16.156Z,63.80
2019-03-10T09:45:18.810Z,63.80
2019-03-10T09:48:23.116Z,62.70
2019-03-10T09:51:28.362Z,63.00
2019-03-10T09:54:04.188Z,63.30
2019-03-10T09:56:47.688Z,63.10
2019-03-10T09:59:39.049Z,63.00
2019-03-10T10:02:30.026Z,63.10
2019-03-10T10:05:12.626Z,63.40
2019-03-10T10:08:00.054Z,63.60
2019-03-10T10:11:07.605Z,63.70
2019-03-10T10:14:01.856Z,64.60
2019-03-10T10:16:51.493Z,63.60
2019-03-10T10:19:37.344Z,63.60
2019-03-10T10:22:22.624Z,63.50
2019-03-10T10:25:00.999Z,63.60
2019-03-10T10:27:49.253Z,63.80
2019-03-10T10:30:33.045Z,64.10
2019-03-10T10:33:25.048Z,64.30
2019-03-10T10:36:15.404Z,64.60
2019-03-10T10:38:54.249Z,64.90
2019-03-10T10:41:47.363Z,65.10
2019-03-10T10:44:38.127Z,65.10
2019-03-10T10:47:47.850Z,65.10
2019-03-10T10:50:45.210Z,65.40
2019-03-10T10:53:28.020Z,65.00
2019-03-10T10:56:17.753Z,65.30
2019-03-10T10:59:13.753Z,65.40
2019-03-10T11:01:55.415Z,65.50
2019-03-10T11:04:59.371Z,65.70
2019-03-10T11:07:50.954Z,65.80
2019-03-10T11:10:43.387Z,65.90
2019-03-10T11:13:44.781Z,66.10
2019-03-10T11:16:39.063Z,66.50
2019-03-10T11:19:19.398Z,66.50
2019-03-10T11:22:05.573Z,66.60
2019-03-10T11:24:48.002Z,66.80
2019-03-10T11:27:28.798Z,66.90
2019-03-10T11:30:24.986Z,67.10
2019-03-10T11:33:05.915Z,67.10
2019-03-10T11:36:03.357Z,67.10
2019-03-10T11:38:39.320Z,67.10
2019-03-10T11:41:36.440Z,67.00
2019-03-10T11:44:20.710Z,66.90
2019-03-10T11:47:03.461Z,67.20
2019-03-10T11:50:00.686Z,67.00
2019-03-10T11:52:37.042Z,67.00
2019-03-10T11:55:24.688Z,66.90
2019-03-10T11:58:30.050Z,67.00
2019-03-10T12:01:21.192Z,67.20
2019-03-10T12:04:18.456Z,67.50
2019-03-10T12:06:53.980Z,67.70
2019-03-10T12:09:25.494Z,67.80
2019-03-10T12:11:54.798Z,67.80
2019-03-10T12:14:24.087Z,67.70
2019-03-10T12:16:53.427Z,67.70
2019-03-10T12:19:22.802Z,67.60
2019-03-10T12:21:52.537Z,67.60
2019-03-10T12:24:21.944Z,67.40
2019-03-10T12:26:51.432Z,67.20
2019-03-10T12:29:21.762Z,67.30
2019-03-10T12:31:51.079Z,67.20
2019-03-10T12:34:22.336Z,67.10
2019-03-10T12:36:53.841Z,66.80
2019-03-10T12:39:23.617Z,66.80
2019-03-10T12:41:58.422Z,66.60
2019-03-10T12:44:24.274Z,66.40
2019-03-10T12:46:53.559Z,66.30
2019-03-10T12:49:25.856Z,66.50
2019-03-10T12:51:55.305Z,66.60
2019-03-10T12:54:25.756Z,66.40
2019-03-10T12:56:55.013Z,66.40
2019-03-10T12:59:26.193Z,66.30
2019-03-10T13:01:56.834Z,66.50
2019-03-10T13:04:27.815Z,66.90
2019-03-10T13:06:59.810Z,67.10
2019-03-10T13:09:34.094Z,68.30
2019-03-10T13:12:03.947Z,67.80
2019-03-10T13:14:34.020Z,66.70
2019-03-10T13:17:09.487Z,66.10
2019-03-10T13:19:45.427Z,65.80
2019-03-10T13:22:17.542Z,65.80
2019-03-10T13:24:47.194Z,65.00
2019-03-10T13:27:17.942Z,65.00
2019-03-10T13:29:47.374Z,65.10
2019-03-10T13:32:25.126Z,65.10
2019-03-10T13:34:55.896Z,65.20
2019-03-10T13:37:26.479Z,65.50
2019-03-10T13:39:56.170Z,67.50
2019-03-10T13:42:25.713Z,66.60
2019-03-10T13:44:57.237Z,65.90
2019-03-10T13:47:26.955Z,66.30
2019-03-10T13:49:56.653Z,66.70
2019-03-10T13:52:26.245Z,65.10
2019-03-10T13:54:55.510Z,63.00
2019-03-10T13:57:25.351Z,61.10
2019-03-10T14:00:11.874Z,58.80
2019-03-10T14:02:42.748Z,56.50
2019-03-10T14:05:13.103Z,54.80
2019-03-10T14:07:49.446Z,53.20
2019-03-10T14:10:18.882Z,52.00
2019-03-10T14:12:48.316Z,51.50
2019-03-10T14:15:25.285Z,52.30
2019-03-10T14:17:54.624Z,51.90
2019-03-10T14:20:31.057Z,52.00
2019-03-10T14:23:00.489Z,52.40
2019-03-10T14:25:30.017Z,52.90
2019-03-10T14:27:59.755Z,53.10
2019-03-10T14:30:29.072Z,53.40
2019-03-10T14:32:58.452Z,53.90
2019-03-10T14:35:28.011Z,54.20
2019-03-10T14:37:57.815Z,54.70
2019-03-10T14:40:27.149Z,55.10
2019-03-10T14:42:56.955Z,55.30
2019-03-10T14:45:28.742Z,55.60
2019-03-10T14:47:58.659Z,56.00
2019-03-10T14:50:28.922Z,56.30
2019-03-10T14:53:04.616Z,56.80
2019-03-10T14:55:33.507Z,57.30
2019-03-10T14:58:02.985Z,57.70
2019-03-10T15:00:32.740Z,58.20
2019-03-10T15:03:02.190Z,58.70
2019-03-10T15:05:31.743Z,59.00
2019-03-10T15:08:01.787Z,59.30
2019-03-10T15:10:35.247Z,59.60
2019-03-10T15:13:04.894Z,59.90
2019-03-10T15:15:34.335Z,60.00
2019-03-10T15:18:03.888Z,60.30
2019-03-10T15:20:33.418Z,60.50
2019-03-10T15:23:02.850Z,60.90
2019-03-10T15:25:32.306Z,61.30
2019-03-10T15:28:01.722Z,61.70
2019-03-10T15:30:31.058Z,62.20
2019-03-10T15:33:00.851Z,62.70
2019-03-10T15:35:31.348Z,63.80
2019-03-10T15:38:00.904Z,64.80
2019-03-10T15:40:30.923Z,65.60
2019-03-10T15:43:04.074Z,66.40
2019-03-10T15:45:39.711Z,67.20
2019-03-10T15:48:15.840Z,67.70
2019-03-10T15:50:46.459Z,68.40
2019-03-10T15:53:17.165Z,68.90
2019-03-10T15:55:47.796Z,69.00
2019-03-10T15:58:17.172Z,69.40
2019-03-10T16:00:48.041Z,69.80
2019-03-10T16:03:19.483Z,70.10
2019-03-10T16:06:01.507Z,70.30
2019-03-10T16:08:31.107Z,70.20
2019-03-10T16:11:02.401Z,70.40
2019-03-10T16:13:31.978Z,70.50
2019-03-10T16:16:01.559Z,70.60
2019-03-10T16:18:33.039Z,70.50
2019-03-10T16:21:03.479Z,70.50
2019-03-10T16:23:33.013Z,70.60
2019-03-10T16:26:02.611Z,70.70
2019-03-10T16:28:32.293Z,70.70
2019-03-10T16:31:04.453Z,70.90
2019-03-10T16:33:34.258Z,70.90
2019-03-10T16:36:03.788Z,71.10
2019-03-10T16:38:33.614Z,71.20
2019-03-10T16:41:03.072Z,71.40
2019-03-10T16:43:32.589Z,71.60
2019-03-10T16:46:02.051Z,71.90
2019-03-10T16:48:31.895Z,72.10
2019-03-10T16:51:06.083Z,72.70
2019-03-10T16:53:38.033Z,73.00
2019-03-10T16:56:13.966Z,73.00
2019-03-10T16:58:43.532Z,73.00
2019-03-10T17:01:14.372Z,73.00
2019-03-10T17:03:43.756Z,73.20
2019-03-10T17:06:13.155Z,73.20
2019-03-10T17:08:43.438Z,72.60
2019-03-10T17:11:13.830Z,73.40
2019-03-10T17:13:43.452Z,73.50
2019-03-10T17:16:12.984Z,73.70
2019-03-10T17:18:44.520Z,74.20
2019-03-10T17:21:14.252Z,74.30
2019-03-10T17:23:44.118Z,74.50
2019-03-10T17:26:13.698Z,74.70
2019-03-10T17:28:43.558Z,74.40
2019-03-10T17:31:14.984Z,74.10
2019-03-10T17:33:44.452Z,73.40
2019-03-10T17:36:14.034Z,72.80
2019-03-10T17:38:43.451Z,72.50
2019-03-10T17:41:13.199Z,71.90
2019-03-10T17:43:49.809Z,71.20
2019-03-10T17:46:26.396Z,70.50
2019-03-10T17:48:55.887Z,70.00
2019-03-10T17:51:25.269Z,69.70
2019-03-10T17:53:54.598Z,69.40
2019-03-10T17:56:25.153Z,69.40
2019-03-10T17:58:55.359Z,69.70
2019-03-10T18:01:24.651Z,69.60
2019-03-10T18:03:59.178Z,69.60
2019-03-10T18:06:28.511Z,69.40
2019-03-10T18:08:58.232Z,69.20
2019-03-10T18:11:27.840Z,69.40
2019-03-10T18:13:58.844Z,69.10
2019-03-10T18:16:34.212Z,68.80
2019-03-10T18:19:03.647Z,68.50
2019-03-10T18:21:35.422Z,67.80
2019-03-10T18:24:05.135Z,67.20
2019-03-10T18:26:34.839Z,66.60
2019-03-10T18:29:04.329Z,66.30
2019-03-10T18:31:33.765Z,65.90
2019-03-10T18:34:03.230Z,65.70
2019-03-10T18:36:34.327Z,65.00
2019-03-10T18:39:05.002Z,64.40
2019-03-10T18:41:34.479Z,63.20
2019-03-10T18:44:03.891Z,61.40
2019-03-10T18:46:33.422Z,60.60
2019-03-10T18:49:03.904Z,59.50
2019-03-10T18:51:33.608Z,58.70
2019-03-10T18:54:03.065Z,58.00
2019-03-10T18:56:32.496Z,56.80
2019-03-10T18:59:01.978Z,56.40
2019-03-10T19:01:31.654Z,55.70
2019-03-10T19:04:01.205Z,54.90
2019-03-10T19:06:30.548Z,54.50
2019-03-10T19:09:00.318Z,54.20
2019-03-10T19:11:31.716Z,53.80
2019-03-10T19:14:18.468Z,53.60
2019-03-10T19:16:48.090Z,53.40
2019-03-10T19:19:17.435Z,53.30
2019-03-10T19:21:46.820Z,52.60
2019-03-10T19:24:16.106Z,52.70
2019-03-10T19:26:45.650Z,52.70
2019-03-10T19:29:14.946Z,52.40
2019-03-10T19:31:48.938Z,52.10
2019-03-10T19:34:18.374Z,52.00
2019-03-10T19:36:57.046Z,51.70
2019-03-10T19:39:20.396Z,51.00
2019-03-10T19:41:52.476Z,51.00
2019-03-10T19:44:21.911Z,49.90
2019-03-10T19:46:51.184Z,50.00
2019-03-10T19:49:20.559Z,49.90
2019-03-10T19:51:50.262Z,49.60
2019-03-10T19:54:19.669Z,49.40
2019-03-10T19:56:49.008Z,49.10
2019-03-10T19:59:18.503Z,48.90
2019-03-10T20:01:47.857Z,48.90
2019-03-10T20:04:17.217Z,49.10
2019-03-10T20:06:46.749Z,49.20
2019-03-10T20:09:16.635Z,49.10
2019-03-10T20:11:46.131Z,49.20
2019-03-10T20:14:15.607Z,49.40
2019-03-10T20:16:45.246Z,49.00
2019-03-10T20:19:15.342Z,48.90
2019-03-10T20:21:48.205Z,48.90
2019-03-10T20:24:27.891Z,49.20
2019-03-10T20:26:57.455Z,49.80
2019-03-10T20:29:31.335Z,49.30
2019-03-10T20:32:13.150Z,49.40
2019-03-10T20:34:34.444Z,49.40
2019-03-10T20:38:00.334Z,49.40
2019-03-10T20:40:36.418Z,48.60
2019-03-10T20:43:06.231Z,48.80
2019-03-10T20:45:35.692Z,48.50
2019-03-10T20:48:05.055Z,48.60
2019-03-10T20:50:36.408Z,48.10
2019-03-10T20:53:06.660Z,48.00
2019-03-10T20:55:36.230Z,48.60
2019-03-10T21:01:01.859Z,49.40
2019-03-10T21:03:36.624Z,50.30
2019-03-10T21:06:22.067Z,52.10
2019-03-10T21:09:09.818Z,52.80
2019-03-10T21:11:57.614Z,53.10
2019-03-10T21:14:37.092Z,53.70
2019-03-10T21:17:08.872Z,54.20
2019-03-10T21:19:45.573Z,54.70
2019-03-10T21:22:17.767Z,55.30
2019-03-10T21:24:56.834Z,55.80
2019-03-10T21:27:26.294Z,56.10
2019-03-10T21:29:56.096Z,56.60
2019-03-10T21:32:27.022Z,57.10
2019-03-10T21:34:58.870Z,57.30
2019-03-10T21:37:29.040Z,57.60
2019-03-10T21:39:58.732Z,58.00
2019-03-10T21:42:28.154Z,58.40
2019-03-10T21:45:18.617Z,58.70
2019-03-10T21:47:51.783Z,58.90
2019-03-10T21:50:21.378Z,59.30
2019-03-10T21:52:50.752Z,59.60
2019-03-10T21:55:28.209Z,60.00
2019-03-10T21:57:57.587Z,60.30
2019-03-10T22:00:27.022Z,60.90
2019-03-10T22:02:56.453Z,61.20
2019-03-10T22:05:27.143Z,61.80
2019-03-10T22:07:56.677Z,61.90
2019-03-10T22:10:28.767Z,62.80
2019-03-10T22:12:58.204Z,62.10
2019-03-10T22:15:27.810Z,62.40
2019-03-10T22:17:57.368Z,62.70
2019-03-10T22:20:26.867Z,63.00
2019-03-10T22:22:56.279Z,63.20
2019-03-10T22:25:26.141Z,63.40
2019-03-10T22:28:13.955Z,63.60
2019-03-10T22:30:43.989Z,63.90
2019-03-10T22:33:19.557Z,64.20
2019-03-10T22:36:01.615Z,64.50
2019-03-10T22:38:33.430Z,64.80
2019-03-10T22:41:04.035Z,65.40
2019-03-10T22:43:33.644Z,65.50
2019-03-10T22:46:05.007Z,65.80
2019-03-10T22:48:34.748Z,66.30
2019-03-10T22:51:06.106Z,66.50
2019-03-10T22:53:59.364Z,66.70
2019-03-10T22:56:29.920Z,67.00
2019-03-10T22:59:01.200Z,67.20
2019-03-10T23:01:35.862Z,67.10
2019-03-10T23:04:05.374Z,67.20
2019-03-10T23:06:34.846Z,67.50
2019-03-10T23:09:12.316Z,67.80
2019-03-10T23:11:47.435Z,67.90
2019-03-10T23:14:18.866Z,68.00
2019-03-10T23:16:49.287Z,68.20
2019-03-10T23:19:28.726Z,68.40
2019-03-10T23:22:00.226Z,68.40
2019-03-10T23:24:31.528Z,68.40
2019-03-10T23:27:00.965Z,68.40
2019-03-10T23:29:32.282Z,68.50
2019-03-10T23:32:10.629Z,68.60
2019-03-10T23:34:41.990Z,68.60
2019-03-10T23:37:13.408Z,68.50
2019-03-10T23:39:42.778Z,68.50
2019-03-10T23:42:12.208Z,68.70
2019-03-10T23:44:47.662Z,68.70
2019-03-10T23:47:18.098Z,68.80
2019-03-10T23:50:07.399Z,68.70
2019-03-10T23:53:26.993Z,68.60
2019-03-10T23:55:56.313Z,68.70
2019-03-10T23:58:25.621Z,68.40
